createdAt,value
2018-07-27T00:00:35.853Z,1009.63
2018-07-27T00:01:35.919Z,1009.67
2018-07-27T00:02:35.952Z,1009.62
2018-07-27T00:03:35.944Z,1009.62
2018-07-27T00:04:35.976Z,1009.65
2018-07-27T00:05:36.004Z,1009.65
2018-07-27T00:06:36.034Z,1009.63
2018-07-27T00:07:36.063Z,1009.66
2018-07-27T00:08:36.115Z,1009.64
2018-07-27T00:09:36.127Z,1009.65
2018-07-27T00:10:36.154Z,1009.66
2018-07-27T00:11:36.184Z,1009.68
2018-07-27T00:12:36.214Z,1009.66
2018-07-27T00:13:36.253Z,1009.64
2018-07-27T00:14:36.278Z,1009.68
2018-07-27T00:15:36.304Z,1009.67
2018-07-27T00:16:36.334Z,1009.68
2018-07-27T00:17:36.364Z,1009.70
2018-07-27T00:18:36.394Z,1009.70
2018-07-27T00:19:36.424Z,1009.72
2018-07-27T00:20:36.459Z,1009.75
2018-07-27T00:21:36.485Z,1009.76
2018-07-27T00:22:36.513Z,1009.76
2018-07-27T00:23:36.544Z,1009.78
2018-07-27T00:24:36.574Z,1009.78
2018-07-27T00:25:36.605Z,1009.80
2018-07-27T00:26:36.661Z,1009.80
2018-07-27T00:27:36.663Z,1009.80
2018-07-27T00:28:36.696Z,1009.76
2018-07-27T00:29:36.725Z,1009.80
2018-07-27T00:30:36.755Z,1009.80
2018-07-27T00:31:36.784Z,1009.85
2018-07-27T00:32:36.817Z,1009.82
2018-07-27T00:33:36.844Z,1009.83
2018-07-27T00:34:36.874Z,1009.82
2018-07-27T00:35:36.906Z,1009.81
2018-07-27T00:36:36.934Z,1009.85
2018-07-27T00:37:36.997Z,1009.82
2018-07-27T00:38:36.994Z,1009.86
2018-07-27T00:39:37.025Z,1009.84
2018-07-27T00:40:37.096Z,1009.85
2018-07-27T00:41:37.084Z,1009.87
2018-07-27T00:42:37.114Z,1009.88
2018-07-27T00:43:37.145Z,1009.87
2018-07-27T00:44:37.175Z,1009.90
2018-07-27T00:45:37.251Z,1009.86
2018-07-27T00:46:37.234Z,1009.89
2018-07-27T00:47:37.264Z,1009.91
2018-07-27T00:48:37.295Z,1009.88
2018-07-27T00:49:37.326Z,1009.89
2018-07-27T00:50:37.355Z,1009.85
2018-07-27T00:51:37.406Z,1009.88
2018-07-27T00:52:37.414Z,1009.89
2018-07-27T00:53:37.444Z,1009.87
2018-07-27T00:54:37.475Z,1009.88
2018-07-27T00:55:37.530Z,1009.86
2018-07-27T00:56:37.537Z,1009.85
2018-07-27T00:57:37.565Z,1009.90
2018-07-27T00:58:37.594Z,1009.83
2018-07-27T00:59:37.624Z,1009.88
2018-07-27T01:00:37.654Z,1009.89
2018-07-27T01:01:37.687Z,1009.87
2018-07-27T01:02:37.723Z,1009.91
2018-07-27T01:03:37.744Z,1009.90
2018-07-27T01:04:37.775Z,1009.86
2018-07-27T01:05:37.804Z,1009.90
2018-07-27T01:06:37.834Z,1009.87
2018-07-27T01:07:37.866Z,1009.93
2018-07-27T01:08:37.895Z,1009.90
2018-07-27T01:09:37.924Z,1009.91
2018-07-27T01:10:37.954Z,1009.90
2018-07-27T01:11:37.984Z,1009.89
2018-07-27T01:12:38.015Z,1009.91
2018-07-27T01:13:38.064Z,1009.91
2018-07-27T01:14:38.074Z,1009.92
2018-07-27T01:15:38.104Z,1009.90
2018-07-27T01:16:38.134Z,1009.89
2018-07-27T01:17:38.165Z,1009.92
2018-07-27T01:18:38.194Z,1009.92
2018-07-27T01:19:38.223Z,1009.91
2018-07-27T01:20:38.295Z,1009.89
2018-07-27T01:21:38.284Z,1009.92
2018-07-27T01:22:38.313Z,1009.95
2018-07-27T01:23:38.343Z,1009.93
2018-07-27T01:24:38.408Z,1009.96
2018-07-27T01:25:38.404Z,1009.95
2018-07-27T01:26:38.433Z,1009.98
2018-07-27T01:27:38.464Z,1009.92
2018-07-27T01:28:38.494Z,1009.96
2018-07-27T01:29:38.524Z,1009.96
2018-07-27T01:30:38.554Z,1009.94
2018-07-27T01:31:38.584Z,1009.95
2018-07-27T01:32:38.614Z,1009.96
2018-07-27T01:33:38.643Z,1009.96
2018-07-27T01:34:38.672Z,1009.97
2018-07-27T01:35:38.703Z,1009.95
2018-07-27T01:36:38.733Z,1009.97
2018-07-27T01:37:38.764Z,1009.95
2018-07-27T01:38:38.793Z,1009.96
2018-07-27T01:39:38.846Z,1009.98
2018-07-27T01:40:38.864Z,1010.01
2018-07-27T01:41:38.884Z,1010.04
2018-07-27T01:42:38.947Z,1009.99
2018-07-27T01:43:38.942Z,1010.02
2018-07-27T01:44:38.993Z,1010.03
2018-07-27T01:45:39.003Z,1010.02
2018-07-27T01:46:39.033Z,1010.02
2018-07-27T01:47:39.069Z,1010.03
2018-07-27T01:48:39.093Z,1010.05
2018-07-27T01:49:39.126Z,1010.00
2018-07-27T01:50:39.152Z,1009.99
2018-07-27T01:51:39.182Z,1010.00
2018-07-27T01:52:39.213Z,1010.03
2018-07-27T01:53:39.242Z,1010.01
2018-07-27T01:54:39.274Z,1010.00
2018-07-27T01:55:39.302Z,1009.98
2018-07-27T01:56:39.366Z,1010.00
2018-07-27T01:57:39.362Z,1009.99
2018-07-27T01:58:39.407Z,1010.02
2018-07-27T01:59:39.421Z,1010.05
2018-07-27T02:00:39.452Z,1010.04
2018-07-27T02:01:39.483Z,1010.05
2018-07-27T02:02:39.512Z,1010.06
2018-07-27T02:03:39.542Z,1010.03
2018-07-27T02:04:39.572Z,1010.08
2018-07-27T02:05:39.603Z,1010.04
2018-07-27T02:06:39.633Z,1010.03
2018-07-27T02:07:39.661Z,1010.06
2018-07-27T02:08:39.715Z,1010.07
2018-07-27T02:09:39.722Z,1010.09
2018-07-27T02:10:39.751Z,1010.06
2018-07-27T02:11:39.782Z,1010.04
2018-07-27T02:12:39.812Z,1010.08
2018-07-27T02:13:39.844Z,1010.05
2018-07-27T02:14:39.871Z,1010.04
2018-07-27T02:15:39.902Z,1010.07
2018-07-27T02:16:39.931Z,1010.07
2018-07-27T02:17:39.962Z,1010.10
2018-07-27T02:18:39.992Z,1010.10
2018-07-27T02:19:40.022Z,1010.12
2018-07-27T02:20:40.055Z,1010.15
2018-07-27T02:21:40.082Z,1010.15
2018-07-27T02:22:40.111Z,1010.17
2018-07-27T02:23:40.216Z,1010.13
2018-07-27T02:24:40.171Z,1010.16
2018-07-27T02:25:40.203Z,1010.16
2018-07-27T02:26:40.231Z,1010.19
2018-07-27T02:27:40.261Z,1010.22
2018-07-27T02:28:40.295Z,1010.25
2018-07-27T02:29:40.322Z,1010.25
2018-07-27T02:30:40.350Z,1010.22
2018-07-27T02:31:40.381Z,1010.21
2018-07-27T02:32:40.411Z,1010.26
2018-07-27T02:33:40.449Z,1010.27
2018-07-27T02:34:40.471Z,1010.27
2018-07-27T02:35:40.501Z,1010.26
2018-07-27T02:36:40.531Z,1010.25
2018-07-27T02:37:40.562Z,1010.26
2018-07-27T02:38:40.594Z,1010.25
2018-07-27T02:39:40.643Z,1010.22
2018-07-27T02:40:40.652Z,1010.22
2018-07-27T02:41:40.682Z,1010.21
2018-07-27T02:42:40.711Z,1010.22
2018-07-27T02:43:40.742Z,1010.26
2018-07-27T02:44:40.772Z,1010.22
2018-07-27T02:45:40.836Z,1010.27
2018-07-27T02:46:40.831Z,1010.27
2018-07-27T02:47:40.866Z,1010.26
2018-07-27T02:48:40.918Z,1010.30
2018-07-27T02:49:40.922Z,1010.31
2018-07-27T02:50:40.950Z,1010.34
2018-07-27T02:51:40.980Z,1010.33
2018-07-27T02:52:41.011Z,1010.33
2018-07-27T02:53:41.041Z,1010.33
2018-07-27T02:54:41.087Z,1010.36
2018-07-27T02:55:41.102Z,1010.36
2018-07-27T02:56:41.130Z,1010.38
2018-07-27T02:57:41.161Z,1010.40
2018-07-27T02:58:41.190Z,1010.42
2018-07-27T02:59:41.220Z,1010.42
2018-07-27T03:00:41.252Z,1010.46
2018-07-27T03:01:41.281Z,1010.46
2018-07-27T03:02:41.354Z,1010.43
2018-07-27T03:03:41.340Z,1010.45
2018-07-27T03:04:41.373Z,1010.45
2018-07-27T03:05:41.401Z,1010.47
2018-07-27T03:06:41.451Z,1010.46
2018-07-27T03:07:41.460Z,1010.47
2018-07-27T03:08:41.490Z,1010.46
2018-07-27T03:09:41.620Z,1010.45
2018-07-27T03:10:41.551Z,1010.50
2018-07-27T03:11:41.582Z,1010.49
2018-07-27T03:12:41.611Z,1010.47
2018-07-27T03:13:41.641Z,1010.51
2018-07-27T03:14:41.670Z,1010.48
2018-07-27T03:15:41.701Z,1010.51
2018-07-27T03:16:41.731Z,1010.52
2018-07-27T03:17:41.760Z,1010.50
2018-07-27T03:18:41.791Z,1010.53
2018-07-27T03:19:41.821Z,1010.53
2018-07-27T03:20:41.851Z,1010.53
2018-07-27T03:21:41.881Z,1010.55
2018-07-27T03:22:41.911Z,1010.53
2018-07-27T03:23:41.973Z,1010.57
2018-07-27T03:24:41.972Z,1010.58
2018-07-27T03:25:42.001Z,1010.55
2018-07-27T03:26:42.031Z,1010.61
2018-07-27T03:27:42.061Z,1010.61
2018-07-27T03:28:42.091Z,1010.61
2018-07-27T03:29:42.121Z,1010.58
2018-07-27T03:30:42.151Z,1010.55
2018-07-27T03:31:42.181Z,1010.57
2018-07-27T03:32:42.216Z,1010.57
2018-07-27T03:33:42.243Z,1010.61
2018-07-27T03:34:42.272Z,1010.59
2018-07-27T03:35:42.301Z,1010.60
2018-07-27T03:36:42.334Z,1010.62
2018-07-27T03:37:42.368Z,1010.63
2018-07-27T03:38:42.392Z,1010.63
2018-07-27T03:39:42.422Z,1010.63
2018-07-27T03:40:42.457Z,1010.61
2018-07-27T03:41:42.484Z,1010.68
2018-07-27T03:42:42.512Z,1010.66
2018-07-27T03:43:42.577Z,1010.65
2018-07-27T03:44:42.573Z,1010.64
2018-07-27T03:45:42.603Z,1010.67
2018-07-27T03:46:42.633Z,1010.67
2018-07-27T03:47:42.663Z,1010.69
2018-07-27T03:48:42.700Z,1010.71
2018-07-27T03:49:42.753Z,1010.70
2018-07-27T03:50:42.754Z,1010.69
2018-07-27T03:51:42.784Z,1010.72
2018-07-27T03:52:42.814Z,1010.76
2018-07-27T03:53:42.844Z,1010.75
2018-07-27T03:54:42.878Z,1010.78
2018-07-27T03:55:42.927Z,1010.80
2018-07-27T03:56:42.935Z,1010.78
2018-07-27T03:57:42.965Z,1010.81
2018-07-27T03:58:42.994Z,1010.81
2018-07-27T03:59:43.025Z,1010.83
2018-07-27T04:00:43.057Z,1010.84
2018-07-27T04:01:43.085Z,1010.87
2018-07-27T04:02:43.114Z,1010.84
2018-07-27T04:03:43.145Z,1010.82
2018-07-27T04:04:43.175Z,1010.88
2018-07-27T04:05:43.205Z,1010.88
2018-07-27T04:06:43.235Z,1010.87
2018-07-27T04:07:43.266Z,1010.91
2018-07-27T04:08:43.361Z,1010.94
2018-07-27T04:09:43.326Z,1010.95
2018-07-27T04:10:43.391Z,1010.99
2018-07-27T04:11:43.390Z,1010.98
2018-07-27T04:12:43.417Z,1011.00
2018-07-27T04:13:43.447Z,1010.99
2018-07-27T04:14:43.476Z,1010.97
2018-07-27T04:15:43.524Z,1010.99
2018-07-27T04:16:43.578Z,1011.00
2018-07-27T04:17:43.567Z,1010.99
2018-07-27T04:18:43.596Z,1010.99
2018-07-27T04:19:43.669Z,1010.97
2018-07-27T04:20:43.657Z,1011.00
2018-07-27T04:21:43.688Z,1011.00
2018-07-27T04:22:43.720Z,1011.01
2018-07-27T04:23:43.747Z,1010.98
2018-07-27T04:24:43.778Z,1010.98
2018-07-27T04:25:43.839Z,1010.98
2018-07-27T04:26:43.837Z,1011.01
2018-07-27T04:27:43.869Z,1010.97
2018-07-27T04:28:43.908Z,1010.97
2018-07-27T04:29:43.940Z,1010.96
2018-07-27T04:30:43.958Z,1010.96
2018-07-27T04:31:43.989Z,1010.98
2018-07-27T04:32:44.019Z,1010.93
2018-07-27T04:33:44.050Z,1010.97
2018-07-27T04:34:44.079Z,1010.98
2018-07-27T04:35:44.174Z,1010.97
2018-07-27T04:36:44.140Z,1010.94
2018-07-27T04:37:44.170Z,1010.99
2018-07-27T04:38:44.201Z,1010.96
2018-07-27T04:39:44.230Z,1010.94
2018-07-27T04:40:44.260Z,1010.96
2018-07-27T04:41:44.291Z,1010.97
2018-07-27T04:42:44.320Z,1010.94
2018-07-27T04:43:44.351Z,1010.94
2018-07-27T04:44:44.381Z,1010.90
2018-07-27T04:45:44.410Z,1010.94
2018-07-27T04:46:44.442Z,1010.93
2018-07-27T04:47:44.471Z,1010.94
2018-07-27T04:48:44.501Z,1010.93
2018-07-27T04:49:44.532Z,1010.94
2018-07-27T04:50:44.562Z,1010.94
2018-07-27T04:51:44.600Z,1010.95
2018-07-27T04:52:44.623Z,1010.95
2018-07-27T04:53:44.651Z,1010.89
2018-07-27T04:54:44.685Z,1010.91
2018-07-27T04:55:44.711Z,1010.91
2018-07-27T04:56:44.780Z,1010.92
2018-07-27T04:57:44.772Z,1010.89
2018-07-27T04:58:44.826Z,1010.92
2018-07-27T04:59:44.832Z,1010.94
2018-07-27T05:00:44.862Z,1010.97
2018-07-27T05:01:44.892Z,1010.96
2018-07-27T05:02:44.935Z,1010.98
2018-07-27T05:03:44.952Z,1010.96
2018-07-27T05:04:45.026Z,1010.95
2018-07-27T05:05:45.013Z,1010.97
2018-07-27T05:06:45.044Z,1010.99
2018-07-27T05:07:45.072Z,1010.98
2018-07-27T05:08:45.102Z,1010.96
2018-07-27T05:09:45.133Z,1010.98
2018-07-27T05:10:45.184Z,1010.99
2018-07-27T05:11:45.244Z,1010.99
2018-07-27T05:12:45.221Z,1010.97
2018-07-27T05:13:45.252Z,1010.96
2018-07-27T05:14:45.284Z,1010.94
2018-07-27T05:15:45.314Z,1010.94
2018-07-27T05:16:45.342Z,1010.93
2018-07-27T05:17:45.374Z,1010.95
2018-07-27T05:18:45.401Z,1010.96
2018-07-27T05:19:45.432Z,1010.98
2018-07-27T05:20:45.463Z,1010.95
2018-07-27T05:21:45.492Z,1010.97
2018-07-27T05:22:45.521Z,1011.01
2018-07-27T05:23:45.552Z,1010.95
2018-07-27T05:24:45.584Z,1010.92
2018-07-27T05:25:45.611Z,1010.98
2018-07-27T05:26:45.641Z,1010.97
2018-07-27T05:27:45.673Z,1010.99
2018-07-27T05:28:45.701Z,1011.04
2018-07-27T05:29:45.732Z,1011.02
2018-07-27T05:30:45.765Z,1011.05
2018-07-27T05:31:45.793Z,1011.07
2018-07-27T05:32:45.823Z,1011.08
2018-07-27T05:33:45.852Z,1011.09
2018-07-27T05:34:45.881Z,1011.10
2018-07-27T05:35:45.911Z,1011.11
2018-07-27T05:36:45.942Z,1011.08
2018-07-27T05:37:45.972Z,1011.11
2018-07-27T05:38:46.000Z,1011.12
2018-07-27T05:39:46.030Z,1011.12
2018-07-27T05:40:46.061Z,1011.17
2018-07-27T05:41:46.092Z,1011.18
2018-07-27T05:42:46.120Z,1011.18
2018-07-27T05:43:46.154Z,1011.15
2018-07-27T05:44:46.181Z,1011.18
2018-07-27T05:45:46.211Z,1011.19
2018-07-27T05:46:46.296Z,1011.19
2018-07-27T05:47:46.282Z,1011.17
2018-07-27T05:48:46.323Z,1011.19
2018-07-27T05:49:46.332Z,1011.17
2018-07-27T05:50:46.361Z,1011.20
2018-07-27T05:51:46.391Z,1011.23
2018-07-27T05:52:46.460Z,1011.22
2018-07-27T05:53:46.456Z,1011.21
2018-07-27T05:54:46.526Z,1011.22
2018-07-27T05:55:46.511Z,1011.25
2018-07-27T05:56:46.542Z,1011.21
2018-07-27T05:57:46.572Z,1011.24
2018-07-27T05:58:46.627Z,1011.24
2018-07-27T05:59:46.632Z,1011.23
2018-07-27T06:00:46.662Z,1011.24
2018-07-27T06:01:46.711Z,1011.24
2018-07-27T06:02:46.830Z,1011.24
2018-07-27T06:03:46.751Z,1011.23
2018-07-27T06:04:46.785Z,1011.20
2018-07-27T06:05:46.817Z,1011.22
2018-07-27T06:06:46.843Z,1011.21
2018-07-27T06:07:46.871Z,1011.24
2018-07-27T06:08:46.925Z,1011.21
2018-07-27T06:09:46.932Z,1011.23
2018-07-27T06:10:46.985Z,1011.25
2018-07-27T06:11:46.992Z,1011.26
2018-07-27T06:12:47.022Z,1011.26
2018-07-27T06:13:47.052Z,1011.29
2018-07-27T06:14:47.083Z,1011.30
2018-07-27T06:15:47.112Z,1011.32
2018-07-27T06:16:47.142Z,1011.31
2018-07-27T06:17:47.237Z,1011.33
2018-07-27T06:18:47.202Z,1011.35
2018-07-27T06:19:47.249Z,1011.34
2018-07-27T06:20:47.263Z,1011.35
2018-07-27T06:21:47.293Z,1011.38
2018-07-27T06:22:47.325Z,1011.38
2018-07-27T06:23:47.430Z,1011.35
2018-07-27T06:24:47.422Z,1011.39
2018-07-27T06:25:47.442Z,1011.38
2018-07-27T06:26:47.445Z,1011.37
2018-07-27T06:27:47.490Z,1011.43
2018-07-27T06:28:47.504Z,1011.43
2018-07-27T06:29:47.534Z,1011.46
2018-07-27T06:30:47.564Z,1011.40
2018-07-27T06:31:47.598Z,1011.47
2018-07-27T06:32:47.659Z,1011.48
2018-07-27T06:33:47.656Z,1011.47
2018-07-27T06:34:47.685Z,1011.43
2018-07-27T06:35:47.716Z,1011.50
2018-07-27T06:36:47.746Z,1011.51
2018-07-27T06:37:47.776Z,1011.52
2018-07-27T06:38:47.805Z,1011.52
2018-07-27T06:39:47.854Z,1011.54
2018-07-27T06:40:47.870Z,1011.52
2018-07-27T06:41:47.910Z,1011.53
2018-07-27T06:42:47.966Z,1011.53
2018-07-27T06:43:47.957Z,1011.59
2018-07-27T06:44:48.012Z,1011.57
2018-07-27T06:45:48.018Z,1011.54
2018-07-27T06:46:48.047Z,1011.59
2018-07-27T06:47:48.080Z,1011.55
2018-07-27T06:48:48.121Z,1011.63
2018-07-27T06:49:48.141Z,1011.60
2018-07-27T06:50:48.168Z,1011.62
2018-07-27T06:51:48.198Z,1011.62
2018-07-27T06:52:48.229Z,1011.61
2018-07-27T06:53:48.259Z,1011.64
2018-07-27T06:54:48.289Z,1011.64
2018-07-27T06:55:48.319Z,1011.63
2018-07-27T06:56:48.349Z,1011.64
2018-07-27T06:57:48.381Z,1011.63
2018-07-27T06:58:48.416Z,1011.67
2018-07-27T06:59:48.441Z,1011.66
2018-07-27T07:00:48.471Z,1011.66
2018-07-27T07:01:48.501Z,1011.65
2018-07-27T07:02:48.532Z,1011.65
2018-07-27T07:03:48.561Z,1011.70
2018-07-27T07:04:48.593Z,1011.71
2018-07-27T07:05:48.627Z,1011.71
2018-07-27T07:06:48.686Z,1011.71
2018-07-27T07:07:48.682Z,1011.73
2018-07-27T07:08:48.712Z,1011.73
2018-07-27T07:09:48.744Z,1011.71
2018-07-27T07:10:48.773Z,1011.78
2018-07-27T07:11:48.803Z,1011.76
2018-07-27T07:12:48.833Z,1011.76
2018-07-27T07:13:48.864Z,1011.77
2018-07-27T07:14:48.894Z,1011.80
2018-07-27T07:15:48.924Z,1011.82
2018-07-27T07:16:48.955Z,1011.85
2018-07-27T07:17:48.984Z,1011.85
2018-07-27T07:18:49.015Z,1011.88
2018-07-27T07:19:49.045Z,1011.87
2018-07-27T07:20:49.076Z,1011.88
2018-07-27T07:21:49.106Z,1011.88
2018-07-27T07:22:49.135Z,1011.88
2018-07-27T07:23:49.166Z,1011.89
2018-07-27T07:24:49.195Z,1011.90
2018-07-27T07:25:49.534Z,1011.89
2018-07-27T07:26:49.255Z,1011.89
2018-07-27T07:27:49.286Z,1011.89
2018-07-27T07:28:49.316Z,1011.94
2018-07-27T07:29:49.347Z,1011.96
2018-07-27T07:30:49.378Z,1011.93
2018-07-27T07:31:49.409Z,1011.93
2018-07-27T07:32:49.437Z,1011.94
2018-07-27T07:33:49.466Z,1011.96
2018-07-27T07:34:49.496Z,1011.94
2018-07-27T07:35:49.559Z,1011.97
2018-07-27T07:36:49.596Z,1011.93
2018-07-27T07:37:49.588Z,1011.96
2018-07-27T07:38:49.616Z,1011.96
2018-07-27T07:39:49.647Z,1011.95
2018-07-27T07:40:49.677Z,1011.97
2018-07-27T07:41:49.707Z,1011.96
2018-07-27T07:42:49.742Z,1011.95
2018-07-27T07:43:49.789Z,1011.96
2018-07-27T07:44:49.797Z,1011.97
2018-07-27T07:45:49.828Z,1011.99
2018-07-27T07:46:49.859Z,1012.00
2018-07-27T07:47:49.888Z,1011.97
2018-07-27T07:48:49.918Z,1011.99
2018-07-27T07:49:49.948Z,1012.00
2018-07-27T07:50:49.979Z,1012.02
2018-07-27T07:51:50.008Z,1011.99
2018-07-27T07:52:50.038Z,1012.00
2018-07-27T07:53:50.078Z,1012.03
2018-07-27T07:54:50.126Z,1012.05
2018-07-27T07:55:50.128Z,1012.00
2018-07-27T07:56:50.165Z,1012.03
2018-07-27T07:57:50.189Z,1012.01
2018-07-27T07:58:50.222Z,1012.06
2018-07-27T07:59:50.256Z,1012.00
2018-07-27T08:00:50.280Z,1012.06
2018-07-27T08:01:50.311Z,1012.05
2018-07-27T08:02:50.339Z,1012.04
2018-07-27T08:03:50.370Z,1012.07
2018-07-27T08:04:50.400Z,1012.10
2018-07-27T08:05:50.430Z,1012.03
2018-07-27T08:06:50.487Z,1012.05
2018-07-27T08:07:50.489Z,1012.06
2018-07-27T08:08:50.520Z,1012.04
2018-07-27T08:09:50.551Z,1012.05
2018-07-27T08:10:50.579Z,1012.03
2018-07-27T08:11:50.609Z,1012.07
2018-07-27T08:12:50.640Z,1012.06
2018-07-27T08:13:50.671Z,1012.05
2018-07-27T08:14:50.700Z,1012.05
2018-07-27T08:15:50.730Z,1012.04
2018-07-27T08:16:50.772Z,1012.07
2018-07-27T08:17:50.791Z,1012.05
2018-07-27T08:18:50.820Z,1012.10
2018-07-27T08:19:50.851Z,1012.07
2018-07-27T08:20:50.881Z,1012.03
2018-07-27T08:21:50.911Z,1012.10
2018-07-27T08:22:50.941Z,1012.11
2018-07-27T08:23:50.971Z,1012.09
2018-07-27T08:24:51.000Z,1012.08
2018-07-27T08:25:51.038Z,1012.11
2018-07-27T08:26:51.060Z,1012.10
2018-07-27T08:27:51.091Z,1012.12
2018-07-27T08:28:51.121Z,1012.11
2018-07-27T08:29:51.163Z,1012.11
2018-07-27T08:30:51.180Z,1012.12
2018-07-27T08:31:51.211Z,1012.09
2018-07-27T08:32:51.241Z,1012.14
2018-07-27T08:33:51.272Z,1012.12
2018-07-27T08:34:51.302Z,1012.12
2018-07-27T08:35:51.331Z,1012.11
2018-07-27T08:36:51.363Z,1012.16
2018-07-27T08:37:51.392Z,1012.17
2018-07-27T08:38:51.428Z,1012.13
2018-07-27T08:39:51.466Z,1012.13
2018-07-27T08:40:51.482Z,1012.17
2018-07-27T08:41:51.524Z,1012.10
2018-07-27T08:42:51.542Z,1012.10
2018-07-27T08:43:51.572Z,1012.11
2018-07-27T08:44:51.602Z,1012.12
2018-07-27T08:45:51.633Z,1012.16
2018-07-27T08:46:51.662Z,1012.14
2018-07-27T08:47:51.693Z,1012.17
2018-07-27T08:48:51.723Z,1012.10
2018-07-27T08:49:51.753Z,1012.12
2018-07-27T08:50:51.783Z,1012.14
2018-07-27T08:51:51.833Z,1012.15
2018-07-27T08:52:51.843Z,1012.13
2018-07-27T08:53:51.873Z,1012.15
2018-07-27T08:54:51.902Z,1012.14
2018-07-27T08:55:51.933Z,1012.10
2018-07-27T08:56:51.962Z,1012.13
2018-07-27T08:57:51.994Z,1012.07
2018-07-27T08:58:52.023Z,1012.08
2018-07-27T08:59:52.053Z,1012.05
2018-07-27T09:00:52.083Z,1011.99
2018-07-27T09:01:52.117Z,1012.00
2018-07-27T09:02:52.144Z,1011.96
2018-07-27T09:03:52.183Z,1011.97
2018-07-27T09:04:52.205Z,1011.95
2018-07-27T09:05:52.237Z,1011.97
2018-07-27T09:06:52.264Z,1012.00
2018-07-27T09:07:52.304Z,1011.96
2018-07-27T09:08:52.324Z,1011.95
2018-07-27T09:09:52.356Z,1011.97
2018-07-27T09:10:52.386Z,1011.95
2018-07-27T09:11:52.417Z,1011.97
2018-07-27T09:12:52.445Z,1012.00
2018-07-27T09:13:52.477Z,1011.92
2018-07-27T09:14:52.510Z,1011.96
2018-07-27T09:15:52.534Z,1011.97
2018-07-27T09:16:52.573Z,1012.00
2018-07-27T09:17:52.596Z,1011.98
2018-07-27T09:18:52.624Z,1011.99
2018-07-27T09:19:52.655Z,1012.01
2018-07-27T09:20:52.684Z,1012.01
2018-07-27T09:21:52.717Z,1012.02
2018-07-27T09:22:52.747Z,1012.00
2018-07-27T09:23:52.778Z,1011.98
2018-07-27T09:24:52.909Z,1011.98
2018-07-27T09:25:52.862Z,1011.97
2018-07-27T09:26:52.873Z,1011.93
2018-07-27T09:27:52.898Z,1011.94
2018-07-27T09:28:52.953Z,1011.94
2018-07-27T09:29:52.969Z,1011.93
2018-07-27T09:30:52.988Z,1011.91
2018-07-27T09:31:53.017Z,1011.89
2018-07-27T09:32:53.047Z,1011.92
2018-07-27T09:33:53.077Z,1011.94
2018-07-27T09:34:53.106Z,1011.96
2018-07-27T09:35:53.161Z,1011.94
2018-07-27T09:36:53.167Z,1011.94
2018-07-27T09:37:53.197Z,1011.93
2018-07-27T09:38:53.227Z,1011.91
2018-07-27T09:39:53.258Z,1011.94
2018-07-27T09:40:53.287Z,1011.90
2018-07-27T09:41:53.360Z,1011.90
2018-07-27T09:42:53.348Z,1011.92
2018-07-27T09:43:53.378Z,1011.91
2018-07-27T09:44:53.408Z,1011.89
2018-07-27T09:45:53.441Z,1011.85
2018-07-27T09:46:53.473Z,1011.84
2018-07-27T09:47:53.498Z,1011.84
2018-07-27T09:48:53.537Z,1011.82
2018-07-27T09:49:53.559Z,1011.87
2018-07-27T09:50:53.590Z,1011.84
2018-07-27T09:51:53.619Z,1011.85
2018-07-27T09:52:53.673Z,1011.84
2018-07-27T09:53:53.746Z,1011.84
2018-07-27T09:54:53.710Z,1011.82
2018-07-27T09:55:53.740Z,1011.81
2018-07-27T09:56:53.770Z,1011.81
2018-07-27T09:57:53.835Z,1011.82
2018-07-27T09:58:53.829Z,1011.78
2018-07-27T09:59:53.860Z,1011.78
2018-07-27T10:00:53.890Z,1011.81
2018-07-27T10:01:53.924Z,1011.81
2018-07-27T10:02:53.990Z,1011.81
2018-07-27T10:03:53.980Z,1011.81
2018-07-27T10:04:54.013Z,1011.84
2018-07-27T10:05:54.062Z,1011.82
2018-07-27T10:06:54.071Z,1011.85
2018-07-27T10:07:54.102Z,1011.87
2018-07-27T10:08:54.131Z,1011.87
2018-07-27T10:09:54.161Z,1011.90
2018-07-27T10:10:54.192Z,1011.86
2018-07-27T10:11:54.222Z,1011.86
2018-07-27T10:12:54.315Z,1011.86
2018-07-27T10:13:54.283Z,1011.85
2018-07-27T10:14:54.313Z,1011.84
2018-07-27T10:15:54.344Z,1011.84
2018-07-27T10:16:54.373Z,1011.82
2018-07-27T10:17:54.403Z,1011.83
2018-07-27T10:18:54.433Z,1011.83
2018-07-27T10:19:54.463Z,1011.81
2018-07-27T10:20:54.497Z,1011.83
2018-07-27T10:21:54.524Z,1011.84
2018-07-27T10:22:54.553Z,1011.79
2018-07-27T10:23:54.583Z,1011.85
2018-07-27T10:24:54.614Z,1011.81
2018-07-27T10:25:54.644Z,1011.81
2018-07-27T10:26:54.674Z,1011.81
2018-07-27T10:27:54.707Z,1011.85
2018-07-27T10:28:54.734Z,1011.80
2018-07-27T10:29:54.765Z,1011.82
2018-07-27T10:30:54.794Z,1011.79
2018-07-27T10:31:54.861Z,1011.80
2018-07-27T10:32:54.858Z,1011.75
2018-07-27T10:33:54.886Z,1011.72
2018-07-27T10:34:54.915Z,1011.73
2018-07-27T10:35:54.945Z,1011.72
2018-07-27T10:36:54.976Z,1011.74
2018-07-27T10:37:55.007Z,1011.74
2018-07-27T10:38:55.036Z,1011.75
2018-07-27T10:39:55.068Z,1011.75
2018-07-27T10:40:55.127Z,1011.78
2018-07-27T10:41:55.127Z,1011.79
2018-07-27T10:42:55.157Z,1011.73
2018-07-27T10:43:55.187Z,1011.79
2018-07-27T10:44:55.222Z,1011.80
2018-07-27T10:45:55.248Z,1011.78
2018-07-27T10:46:55.277Z,1011.76
2018-07-27T10:47:55.308Z,1011.78
2018-07-27T10:48:55.339Z,1011.79
2018-07-27T10:49:55.372Z,1011.78
2018-07-27T10:50:55.399Z,1011.80
2018-07-27T10:51:55.440Z,1011.81
2018-07-27T10:52:55.465Z,1011.84
2018-07-27T10:53:55.491Z,1011.88
2018-07-27T10:54:55.525Z,1011.85
2018-07-27T10:55:55.550Z,1011.86
2018-07-27T10:56:55.581Z,1011.87
2018-07-27T10:57:55.619Z,1011.84
2018-07-27T10:58:55.642Z,1011.88
2018-07-27T10:59:55.672Z,1011.90
2018-07-27T11:00:55.707Z,1011.90
2018-07-27T11:01:55.733Z,1011.96
2018-07-27T11:02:55.762Z,1011.98
2018-07-27T11:03:55.796Z,1011.97
2018-07-27T11:04:55.824Z,1012.00
2018-07-27T11:05:55.854Z,1011.98
2018-07-27T11:06:55.882Z,1011.99
2018-07-27T11:07:55.913Z,1011.95
2018-07-27T11:08:55.945Z,1012.00
2018-07-27T11:09:55.978Z,1012.00
2018-07-27T11:10:56.004Z,1012.02
2018-07-27T11:11:56.035Z,1012.08
2018-07-27T11:12:56.106Z,1012.05
2018-07-27T11:13:56.096Z,1012.07
2018-07-27T11:14:56.133Z,1012.03
2018-07-27T11:15:56.155Z,1012.07
2018-07-27T11:16:56.186Z,1012.06
2018-07-27T11:17:56.318Z,1012.02
2018-07-27T11:18:56.246Z,1012.01
2018-07-27T11:19:56.291Z,1012.01
2018-07-27T11:20:56.335Z,1011.99
2018-07-27T11:21:56.337Z,1012.01
2018-07-27T11:22:56.367Z,1012.04
2018-07-27T11:23:56.399Z,1012.00
2018-07-27T11:24:56.428Z,1012.03
2018-07-27T11:25:56.485Z,1012.06
2018-07-27T11:26:56.489Z,1012.06
2018-07-27T11:27:56.518Z,1012.07
2018-07-27T11:28:56.594Z,1012.05
2018-07-27T11:29:56.579Z,1012.07
2018-07-27T11:30:56.662Z,1012.05
2018-07-27T11:31:56.640Z,1012.08
2018-07-27T11:32:56.671Z,1012.06
2018-07-27T11:33:56.702Z,1012.08
2018-07-27T11:34:56.731Z,1012.09
2018-07-27T11:35:56.762Z,1012.09
2018-07-27T11:36:56.796Z,1012.09
2018-07-27T11:37:56.842Z,1012.12
2018-07-27T11:38:56.851Z,1012.14
2018-07-27T11:39:56.882Z,1012.14
2018-07-27T11:40:56.914Z,1012.10
2018-07-27T11:41:56.944Z,1012.09
2018-07-27T11:42:56.974Z,1012.15
2018-07-27T11:43:57.004Z,1012.12
2018-07-27T11:44:57.059Z,1012.13
2018-07-27T11:45:57.064Z,1012.11
2018-07-27T11:46:57.094Z,1012.15
2018-07-27T11:47:57.127Z,1012.11
2018-07-27T11:48:57.155Z,1012.10
2018-07-27T11:49:57.185Z,1012.10
2018-07-27T11:50:57.215Z,1012.16
2018-07-27T11:51:57.246Z,1012.11
2018-07-27T11:52:57.288Z,1012.17
2018-07-27T11:53:57.306Z,1012.11
2018-07-27T11:54:57.336Z,1012.12
2018-07-27T11:55:57.366Z,1012.14
2018-07-27T11:56:57.430Z,1012.13
2018-07-27T11:57:57.456Z,1012.11
2018-07-27T11:58:57.457Z,1012.09
2018-07-27T11:59:57.488Z,1012.10
2018-07-27T12:00:57.518Z,1012.08
2018-07-27T12:01:57.549Z,1012.13
2018-07-27T12:02:57.579Z,1012.10
2018-07-27T12:03:57.630Z,1012.09
2018-07-27T12:04:57.642Z,1012.11
2018-07-27T12:05:57.669Z,1012.10